Time;durP1;ratioP1;P1;durP2;ratioP2;P2;SDS_P1;SDS_P2;PMS_P1;PMS_P2;Temp;Humidity;BMP_temperature;BMP_pressure;BME280_temperature;BME280_humidity;BME280_pressure;Samples;Min_cycle;Max_cycle;Signal;HPM_P1;HPM_P2
2022/05/17 05:14:32;;;;;;;;;;;;;;;20.82;60.17;97313.41;4242370;27;11224;-73
2022/05/17 05:16:37;;;;;;;;;;;;;;;21.07;60.02;97309.50;4230407;28;5612;-70
2022/05/17 05:18:41;;;;;;;;;;;;;;;21.25;59.69;97311.88;4225350;28;6451;-74
2022/05/17 05:20:44;;;;;;;;;;;;;;;21.42;59.42;97311.88;4221687;28;5794;-69
2022/05/17 05:22:47;;;;;;;;;;;;;;;21.55;59.59;97319.56;4221208;28;5612;-72
2022/05/17 05:24:50;;;;;;;;;;;;;;;21.64;59.17;97311.88;4222326;28;5735;-67
2022/05/17 05:26:53;;;;;;;;;;;;;;;21.73;59.25;97319.22;4221184;28;5711;-67
2022/05/17 05:28:58;;;;;;;;;;;;;;;21.79;59.19;97317.44;4223059;28;5929;-66
2022/05/17 05:31:03;;;;;;;;;;;;;;;21.85;59.05;97316.41;4229497;28;5561;-67
2022/05/17 05:33:06;;;;;;;;;;;;;;;21.93;58.55;97315.97;4227940;28;5635;-72
2022/05/17 05:35:10;;;;;;;;;;;;;;;21.99;58.26;97327.63;4226002;28;6994;-67
2022/05/17 05:37:13;;;;;;;;;;;;;;;22.05;58.32;97319.31;4224994;27;5853;-72
2022/05/17 05:39:16;;;;;;;;;;;;;;;22.10;58.28;97323.19;4230068;28;6377;-65
2022/05/17 05:41:19;;;;;;;;;;;;;;;22.13;58.49;97317.28;4211479;28;5628;-74
2022/05/17 05:43:22;;;;;;;;;;;;;;;22.15;57.97;97321.34;4230535;28;5617;-74
2022/05/17 05:45:25;;;;;;;;;;;;;;;22.23;58.19;97320.09;4209377;28;5631;-73
2022/05/17 05:47:30;;;;;;;;;;;;;;;22.28;58.23;97331.69;4228736;28;6944;-70
2022/05/17 05:49:33;;;;;;;;;;;;;;;22.34;58.24;97332.56;4229548;28;5613;-76
2022/05/17 05:51:36;;;;;;;;;;;;;;;22.38;57.80;97331.00;4229880;28;7504;-71
2022/05/17 05:53:39;;;;;;;;;;;;;;;22.43;57.54;97338.31;4230212;28;5613;-70
2022/05/17 05:55:43;;;;;;;;;;;;;;;22.50;57.57;97336.22;4230797;28;5613;-66
2022/05/17 05:57:46;;;;;;;;;;;;;;;22.58;57.61;97331.16;4229709;28;5703;-64
2022/05/17 05:59:49;;;;;;;;;;;;;;;22.63;57.29;97336.59;4230860;28;5630;-69
2022/05/17 06:01:51;;;;;;;;;;;;;;;22.67;57.26;97332.34;4231252;28;5517;-72
2022/05/17 06:03:56;;;;;;;;;;;;;;;22.76;56.90;97337.22;4213661;28;5725;-65
2022/05/17 06:06:00;;;;;;;;;;;;;;;22.82;56.89;97336.22;4225498;28;5631;-70
2022/05/17 06:08:02;;;;;;;;;;;;;;;22.91;56.72;97337.41;4212970;28;5631;-75
2022/05/17 06:10:09;;;;;;;;;;;;;;;22.97;56.88;97335.53;4212259;28;5121;-65
2022/05/17 06:12:12;;;;;;;;;;;;;;;23.03;56.47;97343.41;4211547;28;5639;-64
2022/05/17 06:14:15;;;;;;;;;;;;;;;23.09;56.58;97341.53;4225742;28;5521;-68
2022/05/17 06:16:18;;;;;;;;;;;;;;;23.10;56.44;97343.97;4218888;28;6274;-67
2022/05/17 06:18:21;;;;;;;;;;;;;;;23.11;55.96;97337.53;4201810;28;5535;-65
2022/05/17 06:20:26;;;;;;;;;;;;;;;23.13;56.24;97337.28;4218816;28;5625;-66
2022/05/17 06:22:29;;;;;;;;;;;;;;;23.14;55.83;97345.09;4219616;28;5628;-72
2022/05/17 06:24:32;;;;;;;;;;;;;;;23.14;56.04;97339.72;4219466;28;5605;-69
2022/05/17 06:26:35;;;;;;;;;;;;;;;23.15;55.99;97340.53;4219052;28;5613;-65
2022/05/17 06:28:38;;;;;;;;;;;;;;;23.19;55.83;97338.91;4219510;28;6953;-65
2022/05/17 06:30:42;;;;;;;;;;;;;;;23.24;55.42;97349.75;4218519;28;5633;-65
2022/05/17 06:32:45;;;;;;;;;;;;;;;23.26;55.82;97346.78;4218420;28;5612;-72
2022/05/17 06:34:49;;;;;;;;;;;;;;;23.22;55.90;97344.63;4218101;28;5529;-65
2022/05/17 06:36:53;;;;;;;;;;;;;;;23.22;55.71;97341.94;4200471;28;5106;-65
2022/05/17 06:38:56;;;;;;;;;;;;;;;23.25;55.75;97345.97;4219278;28;5649;-68
2022/05/17 06:40:59;;;;;;;;;;;;;;;23.30;55.06;97347.88;4218837;28;5524;-69
2022/05/17 06:43:04;;;;;;;;;;;;;;;23.36;55.09;97338.75;4219178;28;5541;-65
2022/05/17 06:45:08;;;;;;;;;;;;;;;23.38;55.10;97339.31;4218004;28;5684;-68
2022/05/17 06:47:11;;;;;;;;;;;;;;;23.40;54.78;97339.84;4219440;28;5563;-67
2022/05/17 06:49:14;;;;;;;;;;;;;;;23.41;54.42;97336.06;4217983;28;5700;-65
2022/05/17 06:51:17;;;;;;;;;;;;;;;23.41;54.59;97339.59;4219052;28;6410;-65
2022/05/17 06:53:22;;;;;;;;;;;;;;;23.43;54.42;97340.13;4201020;28;5655;-68
2022/05/17 06:55:25;;;;;;;;;;;;;;;23.44;54.11;97335.53;4219069;28;6117;-68
2022/05/17 06:57:27;;;;;;;;;;;;;;;23.43;54.42;97344.72;4217046;28;5696;-65
2022/05/17 06:59:31;;;;;;;;;;;;;;;23.43;54.11;97337.44;4216779;28;5940;-66
2022/05/17 07:01:34;;;;;;;;;;;;;;;23.41;54.34;97338.78;4219077;28;6445;-67
2022/05/17 07:03:37;;;;;;;;;;;;;;;23.42;54.05;97333.09;4217646;28;5624;-67
2022/05/17 07:05:40;;;;;;;;;;;;;;;23.44;54.19;97339.09;4200912;28;5726;-66
2022/05/17 07:07:43;;;;;;;;;;;;;;;23.46;53.90;97352.31;4218869;28;7659;-65
2022/05/17 07:13:07;;;;;;;;;;;;;;;23.46;53.80;97349.59;4218206;28;5640;-68
2022/05/17 07:14:31;;;;;;;;;;;;;;;23.43;53.51;97347.41;4215539;28;5517;-69
2022/05/17 07:16:34;;;;;;;;;;;;;;;23.40;53.50;97347.94;4217670;28;5722;-73
2022/05/17 07:18:37;;;;;;;;;;;;;;;23.33;53.24;97358.97;4213315;28;5661;-68
2022/05/17 07:20:40;;;;;;;;;;;;;;;23.29;52.88;97357.88;4219245;28;5524;-66
2022/05/17 07:22:43;;;;;;;;;;;;;;;23.26;53.19;97342.22;4218703;28;5612;-72
2022/05/17 07:24:47;;;;;;;;;;;;;;;23.24;53.01;97347.88;4218505;28;5617;-65
2022/05/17 07:26:50;;;;;;;;;;;;;;;23.27;52.57;97351.91;4216837;28;5624;-69
2022/05/17 07:29:13;;;;;;;;;;;;;;;23.29;52.52;97347.06;4218190;28;5616;-69
2022/05/17 07:31:17;;;;;;;;;;;;;;;23.29;52.29;97348.97;4199120;28;5632;-70
2022/05/17 07:33:20;;;;;;;;;;;;;;;23.26;52.35;97347.59;4217436;28;5580;-66
2022/05/17 07:35:23;;;;;;;;;;;;;;;23.23;52.44;97345.44;4218021;28;5608;-73
2022/05/17 07:37:26;;;;;;;;;;;;;;;23.18;52.28;97340.81;4199374;28;5640;-74
2022/05/17 07:39:29;;;;;;;;;;;;;;;23.11;52.14;97342.94;4200259;28;5694;-71
2022/05/17 07:41:40;;;;;;;;;;;;;;;23.06;52.63;97340.19;4201784;28;5643;-72
2022/05/17 07:43:43;;;;;;;;;;;;;;;23.05;52.21;97338.56;4201404;28;6325;-66
2022/05/17 07:45:49;;;;;;;;;;;;;;;23.10;52.46;97337.78;4201271;28;5635;-74
2022/05/17 07:47:54;;;;;;;;;;;;;;;23.16;52.42;97344.84;4216589;28;5969;-73
2022/05/17 07:49:57;;;;;;;;;;;;;;;23.17;52.08;97336.47;4214416;28;5627;-70
2022/05/17 07:52:00;;;;;;;;;;;;;;;23.19;52.00;97341.63;4202016;28;5691;-72
2022/05/17 07:54:03;;;;;;;;;;;;;;;23.20;51.87;97340.53;4201464;28;6328;-69
2022/05/17 07:56:06;;;;;;;;;;;;;;;23.22;51.46;97328.44;4212141;28;5612;-67
2022/05/17 07:58:11;;;;;;;;;;;;;;;23.24;51.53;97337.06;4218615;28;5683;-69
2022/05/17 08:00:15;;;;;;;;;;;;;;;23.29;51.65;97328.19;4217780;28;5902;-70
2022/05/17 08:02:19;;;;;;;;;;;;;;;23.34;51.41;97330.13;4218111;28;5698;-72
2022/05/17 08:04:23;;;;;;;;;;;;;;;23.38;51.05;97331.22;4217819;28;5589;-71
2022/05/17 08:06:26;;;;;;;;;;;;;;;23.41;51.39;97328.78;4218331;28;5637;-65
2022/05/17 08:08:29;;;;;;;;;;;;;;;23.43;50.99;97328.53;4201475;28;5628;-70
2022/05/17 08:10:32;;;;;;;;;;;;;;;23.46;51.24;97328.03;4210580;28;6219;-74
2022/05/17 08:12:35;;;;;;;;;;;;;;;23.46;50.69;97325.31;4216712;28;5612;-64
2022/05/17 08:14:40;;;;;;;;;;;;;;;23.47;50.83;97324.25;4217931;28;5628;-65
2022/05/17 08:16:43;;;;;;;;;;;;;;;23.46;51.12;97320.75;4216447;28;5687;-65
2022/05/17 08:18:47;;;;;;;;;;;;;;;23.46;51.09;97319.94;4217738;28;5176;-65
2022/05/17 08:20:50;;;;;;;;;;;;;;;23.44;50.72;97317.50;4216311;28;5663;-66
2022/05/17 08:22:52;;;;;;;;;;;;;;;23.43;50.73;97323.94;4217912;28;5616;-64
2022/05/17 08:27:39;;;;;;;;;;;;;;;23.39;50.76;97316.66;4218028;28;5635;-64
2022/05/17 08:29:43;;;;;;;;;;;;;;;23.38;50.79;97317.72;4217075;28;5623;-64
2022/05/17 08:33:14;;;;;;;;;;;;;;;23.37;50.42;97321.50;4217593;28;6414;-64
2022/05/17 08:34:10;;;;;;;;;;;;;;;23.40;50.33;97312.88;4216995;28;6313;-65
2022/05/17 08:36:13;;;;;;;;;;;;;;;23.40;50.61;97307.47;4199834;28;5671;-64
2022/05/17 08:38:19;;;;;;;;;;;;;;;23.42;50.10;97305.31;4197507;28;5860;-64
2022/05/17 08:40:24;;;;;;;;;;;;;;;23.42;50.38;97314.22;4204652;28;5644;-66
2022/05/17 08:42:36;;;;;;;;;;;;;;;23.44;50.14;97312.09;4216415;28;5529;-64
2022/05/17 08:44:48;;;;;;;;;;;;;;;23.46;50.46;97309.94;4216975;28;5611;-64
2022/05/17 08:47:00;;;;;;;;;;;;;;;23.46;50.17;97309.94;4200847;28;5619;-64
2022/05/17 08:49:25;;;;;;;;;;;;;;;23.44;50.01;97309.41;4200483;28;6300;-63
2022/05/17 08:51:42;;;;;;;;;;;;;;;23.42;49.87;97303.44;4209277;28;5613;-64
2022/05/17 08:53:48;;;;;;;;;;;;;;;23.42;49.65;97308.03;4216604;28;5627;-63
2022/05/17 08:55:52;;;;;;;;;;;;;;;23.42;50.22;97299.91;4200531;28;5638;-64
2022/05/17 08:57:59;;;;;;;;;;;;;;;23.44;49.86;97300.47;4200858;28;5646;-64
2022/05/17 09:00:16;;;;;;;;;;;;;;;23.45;50.02;97302.13;4210820;28;5628;-64
2022/05/17 09:02:26;;;;;;;;;;;;;;;23.45;49.69;97291.31;4213583;28;5528;-63
2022/05/17 09:04:53;;;;;;;;;;;;;;;23.47;49.73;97289.97;4216665;28;6416;-64
2022/05/17 09:07:04;;;;;;;;;;;;;;;23.51;49.40;97290.25;4217928;28;5770;-63
2022/05/17 09:09:14;;;;;;;;;;;;;;;23.54;49.34;97289.72;4217338;28;7703;-63
2022/05/17 09:11:22;;;;;;;;;;;;;;;23.53;49.07;97291.59;4217261;28;5624;-64
2022/05/17 09:13:33;;;;;;;;;;;;;;;23.54;49.31;97284.31;4216221;28;5756;-65
2022/05/17 09:16:00;;;;;;;;;;;;;;;23.54;49.05;97284.31;4192212;28;5791;-64
2022/05/17 09:18:09;;;;;;;;;;;;;;;23.57;49.51;97283.81;4217437;28;5089;-64
2022/05/17 09:20:17;;;;;;;;;;;;;;;23.61;48.90;97284.13;4216272;28;5645;-63
2022/05/17 09:22:21;;;;;;;;;;;;;;;23.66;49.22;97284.13;4217518;28;5064;-64
2022/05/17 09:24:26;;;;;;;;;;;;;;;23.64;48.82;97283.59;4216685;28;5719;-65
2022/05/17 09:26:31;;;;;;;;;;;;;;;23.64;49.27;97281.69;4217219;28;5684;-64
2022/05/17 09:28:47;;;;;;;;;;;;;;;23.65;49.18;97282.50;4217271;28;5744;-64
2022/05/17 09:31:10;;;;;;;;;;;;;;;23.65;48.82;97286.00;4199060;28;5698;-65
2022/05/17 09:33:19;;;;;;;;;;;;;;;23.64;48.96;97279.00;4216622;28;5724;-64
2022/05/17 09:35:23;;;;;;;;;;;;;;;23.69;48.51;97283.63;4198807;28;5616;-64
2022/05/17 09:37:33;;;;;;;;;;;;;;;23.69;48.69;97276.34;4216926;28;5657;-64
2022/05/17 09:39:37;;;;;;;;;;;;;;;23.68;48.62;97274.72;4198694;28;5643;-63
2022/05/17 09:41:42;;;;;;;;;;;;;;;23.69;48.56;97268.22;4216799;28;5584;-63
2022/05/17 09:44:09;;;;;;;;;;;;;;;23.70;48.31;97277.94;4215853;28;5625;-64
2022/05/17 09:46:16;;;;;;;;;;;;;;;23.73;48.19;97272.00;4217006;28;5505;-64
2022/05/17 09:52:32;;;;;;;;;;;;;;;23.76;48.56;97274.19;4198642;28;5631;-64
2022/05/17 09:53:21;;;;;;;;;;;;;;;23.81;48.44;97274.19;4219471;28;5617;-64
2022/05/17 09:55:27;;;;;;;;;;;;;;;23.83;47.85;97273.13;4200435;28;5896;-64
2022/05/17 09:57:31;;;;;;;;;;;;;;;23.87;47.76;97266.09;4219937;28;5517;-64
2022/05/17 09:59:34;;;;;;;;;;;;;;;23.91;47.90;97269.91;4219555;28;5750;-63
2022/05/17 10:01:40;;;;;;;;;;;;;;;23.92;48.14;97263.44;4220368;28;5616;-64
2022/05/17 10:03:57;;;;;;;;;;;;;;;23.94;47.93;97266.66;4219741;28;7133;-64
2022/05/17 10:06:07;;;;;;;;;;;;;;;23.96;47.79;97267.22;4220370;28;5611;-64
2022/05/17 10:08:34;;;;;;;;;;;;;;;23.99;47.65;97261.25;4218128;28;5616;-65
2022/05/17 10:10:42;;;;;;;;;;;;;;;24.02;47.55;97263.47;4201597;28;5627;-64
2022/05/17 10:12:45;;;;;;;;;;;;;;;24.02;47.81;97253.47;4218527;28;5623;-64
2022/05/17 10:14:52;;;;;;;;;;;;;;;24.05;47.38;97252.09;4215586;28;6425;-66
2022/05/17 10:17:01;;;;;;;;;;;;;;;24.08;47.30;97254.25;4220274;28;5710;-64
2022/05/17 10:19:11;;;;;;;;;;;;;;;24.09;47.15;97251.28;4219047;28;5787;-67
2022/05/17 10:21:18;;;;;;;;;;;;;;;24.11;47.45;97245.63;4220177;28;5699;-64
2022/05/17 10:23:28;;;;;;;;;;;;;;;24.13;47.47;97242.69;4219780;28;5608;-65
2022/05/17 10:25:41;;;;;;;;;;;;;;;24.18;47.02;97250.78;4219012;28;5636;-64
2022/05/17 10:27:49;;;;;;;;;;;;;;;24.19;46.90;97242.38;4219937;28;5715;-65
2022/05/17 10:29:55;;;;;;;;;;;;;;;24.20;46.80;97235.91;4216880;28;5632;-64
2022/05/17 10:32:06;;;;;;;;;;;;;;;24.22;46.95;97233.75;4219846;28;5637;-64
2022/05/17 10:34:45;;;;;;;;;;;;;;;24.25;46.97;97235.94;4219490;28;5768;-64
2022/05/17 10:36:51;;;;;;;;;;;;;;;24.26;46.73;97232.16;4220025;28;6286;-64
2022/05/17 10:39:02;;;;;;;;;;;;;;;24.28;46.50;97224.56;4219876;28;5127;-64
2022/05/17 10:41:11;;;;;;;;;;;;;;;24.31;46.75;97229.47;4219770;28;5616;-64
2022/05/17 10:43:17;;;;;;;;;;;;;;;24.33;46.73;97227.28;4219890;28;5710;-64
2022/05/17 10:45:32;;;;;;;;;;;;;;;24.33;46.38;97219.19;4218951;28;5624;-64
2022/05/17 10:47:50;;;;;;;;;;;;;;;24.34;46.53;97218.09;4219751;28;5679;-65
2022/05/17 10:50:21;;;;;;;;;;;;;;;24.35;46.30;97214.34;4218624;28;5633;-64
2022/05/17 10:52:31;;;;;;;;;;;;;;;24.36;46.42;97215.16;4219420;28;5804;-64
2022/05/17 10:54:49;;;;;;;;;;;;;;;24.37;46.42;97214.06;4219880;28;5703;-64
2022/05/17 10:56:59;;;;;;;;;;;;;;;24.39;46.41;97225.41;4218753;28;5616;-65
2022/05/17 10:59:10;;;;;;;;;;;;;;;24.42;46.30;97227.56;4218832;28;5684;-64
2022/05/17 11:01:22;;;;;;;;;;;;;;;24.45;46.66;97218.09;4210318;28;5880;-68
2022/05/17 11:03:38;;;;;;;;;;;;;;;24.47;46.16;97215.97;4196049;28;5650;-64
2022/05/17 11:06:02;;;;;;;;;;;;;;;24.48;46.22;97206.78;4218145;28;5601;-62
2022/05/17 11:08:14;;;;;;;;;;;;;;;24.51;46.58;97211.63;4216535;28;5637;-61
2022/05/17 11:10:30;;;;;;;;;;;;;;;24.52;46.25;97205.13;4215864;28;5616;-63
2022/05/17 11:12:39;;;;;;;;;;;;;;;24.53;46.46;97193.22;4219123;28;5727;-61
2022/05/17 11:14:50;;;;;;;;;;;;;;;24.54;46.20;97200.25;4218687;28;5691;-61
2022/05/17 11:17:00;;;;;;;;;;;;;;;24.55;46.21;97191.06;4219190;28;6361;-62
2022/05/17 11:19:12;;;;;;;;;;;;;;;24.55;46.67;97194.56;4216379;28;5767;-63
2022/05/17 11:21:21;;;;;;;;;;;;;;;24.56;46.07;97187.28;4218067;28;5754;-63
2022/05/17 11:23:43;;;;;;;;;;;;;;;24.58;46.53;97180.53;4200146;28;5643;-63
2022/05/17 11:26:01;;;;;;;;;;;;;;;24.61;46.00;97181.88;4215690;28;5631;-64
2022/05/17 11:28:18;;;;;;;;;;;;;;;24.62;46.05;97172.69;4219072;28;5703;-63
2022/05/17 11:30:26;;;;;;;;;;;;;;;24.65;46.25;97177.53;4202018;28;5673;-65
2022/05/17 11:32:32;;;;;;;;;;;;;;;24.67;46.02;97165.34;4214196;28;5628;-63
2022/05/17 11:34:41;;;;;;;;;;;;;;;24.69;46.44;97159.69;4212937;28;5592;-61
2022/05/17 11:36:45;;;;;;;;;;;;;;;24.72;46.40;97164.56;4218758;28;5624;-66
2022/05/17 11:38:54;;;;;;;;;;;;;;;24.75;46.10;97161.28;4217238;28;5711;-62
2022/05/17 11:40:58;;;;;;;;;;;;;;;24.79;46.53;97161.53;4218671;28;5629;-66
2022/05/17 11:45:44;;;;;;;;;;;;;;;24.86;46.25;97149.34;4200754;28;5726;-63
2022/05/17 11:47:54;;;;;;;;;;;;;;;24.87;46.47;97150.97;4206447;28;5830;-62
2022/05/17 11:50:22;;;;;;;;;;;;;;;24.87;46.62;97142.88;4218265;28;5601;-62
2022/05/17 11:52:29;;;;;;;;;;;;;;;24.90;46.66;97145.00;4215020;28;5750;-62
2022/05/17 11:54:42;;;;;;;;;;;;;;;24.92;46.37;97137.44;4198795;28;5642;-62
2022/05/17 11:56:45;;;;;;;;;;;;;;;24.95;46.86;97136.88;4207501;28;5617;-64
2022/05/17 11:58:50;;;;;;;;;;;;;;;24.97;46.63;97131.19;4217356;28;5748;-64
2022/05/17 12:00:53;;;;;;;;;;;;;;;25.00;46.90;97137.94;4213744;28;5739;-62
2022/05/17 12:02:59;;;;;;;;;;;;;;;25.00;46.67;97136.03;4217536;28;5532;-62
2022/05/17 12:05:01;;;;;;;;;;;;;;;25.01;46.53;97132.28;4216476;28;5629;-62
2022/05/17 12:07:28;;;;;;;;;;;;;;;25.03;46.54;97123.88;4218261;28;5517;-62
2022/05/17 12:09:36;;;;;;;;;;;;;;;25.05;46.66;97124.44;4217128;28;5692;-62
2022/05/17 12:11:49;;;;;;;;;;;;;;;25.07;46.70;97128.47;4217177;28;5624;-62
2022/05/17 12:13:55;;;;;;;;;;;;;;;25.09;46.99;97122.78;4216585;28;5616;-62
2022/05/17 12:15:58;;;;;;;;;;;;;;;25.12;46.78;97119.53;4217191;28;5722;-63
2022/05/17 12:18:12;;;;;;;;;;;;;;;25.13;47.05;97121.94;4218146;28;5715;-62
2022/05/17 12:20:19;;;;;;;;;;;;;;;25.14;46.97;97118.19;4217290;28;6451;-62
2022/05/17 12:22:30;;;;;;;;;;;;;;;25.14;46.94;97118.19;4216443;28;5640;-63
2022/05/17 12:24:55;;;;;;;;;;;;;;;25.17;46.66;97114.91;4216163;28;6424;-62
2022/05/17 12:27:11;;;;;;;;;;;;;;;25.19;47.12;97114.63;4217059;28;5695;-62
2022/05/17 12:31:44;;;;;;;;;;;;;;;25.20;46.70;97108.13;4206718;28;5821;-62
2022/05/17 12:33:49;;;;;;;;;;;;;;;25.22;47.23;97108.66;4214396;28;5639;-62
2022/05/17 12:35:54;;;;;;;;;;;;;;;25.24;46.71;97106.47;4215314;28;5863;-62
2022/05/17 12:37:59;;;;;;;;;;;;;;;25.25;47.19;97097.25;4217919;28;5623;-62
2022/05/17 12:44:55;;;;;;;;;;;;;;;25.30;46.91;97091.84;4213129;28;5624;-62
2022/05/17 12:46:59;;;;;;;;;;;;;;;25.33;47.20;97091.28;4217515;28;5170;-62
2022/05/17 12:49:13;;;;;;;;;;;;;;;25.35;47.19;97094.50;4216505;28;5629;-61
2022/05/17 12:51:20;;;;;;;;;;;;;;;25.38;47.11;97088.53;4206860;28;5626;-62
2022/05/17 12:53:36;;;;;;;;;;;;;;;25.38;46.76;97088.53;4209902;28;5679;-62
2022/05/17 12:55:56;;;;;;;;;;;;;;;25.41;47.07;97084.47;4215422;28;5727;-61
2022/05/17 12:58:08;;;;;;;;;;;;;;;25.42;46.94;97081.47;4207812;28;6293;-62
2022/05/17 13:00:17;;;;;;;;;;;;;;;25.44;46.92;97079.28;4217246;28;5929;-62
2022/05/17 13:02:24;;;;;;;;;;;;;;;25.48;47.05;97068.69;4216441;28;5629;-63
2022/05/17 13:04:30;;;;;;;;;;;;;;;25.49;47.07;97075.75;4216133;28;5648;-62
2022/05/17 13:06:35;;;;;;;;;;;;;;;25.51;47.20;97073.56;4216366;28;5708;-61
2022/05/17 13:08:40;;;;;;;;;;;;;;;25.53;46.91;97071.38;4215542;28;5673;-62
2022/05/17 13:11:00;;;;;;;;;;;;;;;25.54;47.40;97075.69;4217594;28;5619;-61
2022/05/17 13:13:17;;;;;;;;;;;;;;;25.55;47.05;97075.41;4215804;28;5704;-62
2022/05/17 13:15:20;;;;;;;;;;;;;;;25.54;47.19;97076.50;4198099;28;5672;-62
2022/05/17 13:17:28;;;;;;;;;;;;;;;25.54;47.11;97078.41;4214640;28;5696;-62
2022/05/17 13:19:31;;;;;;;;;;;;;;;25.53;47.44;97069.47;4208354;28;5609;-62
2022/05/17 13:21:36;;;;;;;;;;;;;;;25.57;47.19;97068.91;4216472;28;5632;-62
2022/05/17 13:23:40;;;;;;;;;;;;;;;25.58;47.46;97075.94;4216508;28;5607;-62
2022/05/17 13:25:46;;;;;;;;;;;;;;;25.57;47.27;97066.19;4219895;28;5604;-61
2022/05/17 13:27:51;;;;;;;;;;;;;;;25.58;47.52;97065.09;4219668;28;5647;-62
2022/05/17 13:29:57;;;;;;;;;;;;;;;25.59;47.41;97061.31;4220028;28;5639;-62
2022/05/17 13:32:04;;;;;;;;;;;;;;;25.58;47.27;97059.69;4201733;28;5551;-62
2022/05/17 13:34:07;;;;;;;;;;;;;;;25.59;47.30;97054.00;4212900;28;5639;-62
2022/05/17 13:36:13;;;;;;;;;;;;;;;25.59;47.45;97047.78;4218251;28;5910;-61
2022/05/17 13:38:24;;;;;;;;;;;;;;;25.62;47.44;97052.66;4220148;28;5619;-62
2022/05/17 13:40:42;;;;;;;;;;;;;;;25.63;47.63;97051.56;4218897;28;5623;-63
2022/05/17 13:42:50;;;;;;;;;;;;;;;25.65;47.30;97044.75;4203960;28;5631;-62
2022/05/17 13:44:55;;;;;;;;;;;;;;;25.67;47.64;97044.47;4209538;28;5631;-62
2022/05/17 13:47:04;;;;;;;;;;;;;;;25.68;47.56;97044.19;4219223;28;5711;-62
2022/05/17 13:49:22;;;;;;;;;;;;;;;25.70;47.18;97044.72;4219881;28;5609;-62
2022/05/17 13:51:29;;;;;;;;;;;;;;;25.74;47.57;97047.69;4208259;28;5643;-62
2022/05/17 13:53:34;;;;;;;;;;;;;;;25.75;47.81;97033.06;4219397;28;5621;-62
2022/05/17 13:55:42;;;;;;;;;;;;;;;25.78;47.40;97046.84;4219017;28;5639;-62
2022/05/17 13:57:49;;;;;;;;;;;;;;;25.80;47.76;97033.81;4220153;28;6300;-62
2022/05/17 13:59:55;;;;;;;;;;;;;;;25.80;47.77;97028.41;4219342;28;5636;-62
2022/05/17 14:02:03;;;;;;;;;;;;;;;25.82;47.65;97033.53;4219241;28;5611;-62
2022/05/17 14:04:13;;;;;;;;;;;;;;;25.83;47.94;97030.56;4201832;28;5646;-62
2022/05/17 14:06:18;;;;;;;;;;;;;;;25.85;47.85;97024.03;4219053;28;5814;-64
2022/05/17 14:13:26;;;;;;;;;;;;;;;25.88;47.84;97018.84;4201542;28;5540;-62
2022/05/17 14:15:35;;;;;;;;;;;;;;;25.90;47.85;97015.84;4219800;28;5752;-62
2022/05/17 14:17:38;;;;;;;;;;;;;;;25.90;47.83;97024.78;4216241;28;5687;-62
2022/05/17 14:19:43;;;;;;;;;;;;;;;25.91;47.89;97023.69;4225476;28;5605;-61
2022/05/17 14:21:48;;;;;;;;;;;;;;;25.94;47.82;97028.56;4210644;28;5664;-62
2022/05/17 14:23:53;;;;;;;;;;;;;;;25.95;47.66;97022.06;4218852;28;5628;-62
2022/05/17 14:25:58;;;;;;;;;;;;;;;25.96;47.38;97025.56;4219406;28;5732;-62
2022/05/17 14:28:01;;;;;;;;;;;;;;;25.99;47.84;97020.38;4233272;28;5590;-62
2022/05/17 14:30:04;;;;;;;;;;;;;;;26.02;47.86;97017.09;4227755;28;7418;-62
2022/05/17 14:32:08;;;;;;;;;;;;;;;26.01;47.74;97007.34;4206426;28;5621;-62
2022/05/17 14:34:16;;;;;;;;;;;;;;;26.03;47.85;97015.19;4214636;28;5775;-62
2022/05/17 14:36:24;;;;;;;;;;;;;;;26.04;48.10;97009.47;4214226;28;5617;-62
2022/05/17 14:38:27;;;;;;;;;;;;;;;26.06;47.93;97009.22;4219198;28;5616;-62
2022/05/17 14:40:30;;;;;;;;;;;;;;;26.07;47.87;97006.22;4214183;28;5680;-62
2022/05/17 14:42:35;;;;;;;;;;;;;;;26.08;47.67;97007.81;4212859;28;5633;-62
2022/05/17 14:44:54;;;;;;;;;;;;;;;26.09;47.67;97001.31;4213476;28;5695;-61
2022/05/17 14:47:04;;;;;;;;;;;;;;;26.11;47.61;96990.97;4213537;28;5616;-62
2022/05/17 14:49:09;;;;;;;;;;;;;;;26.13;47.56;96993.41;4217355;28;5628;-61
2022/05/17 14:51:13;;;;;;;;;;;;;;;26.12;47.52;97000.72;4212896;28;5608;-62
2022/05/17 14:53:16;;;;;;;;;;;;;;;26.11;47.24;96993.69;4217230;28;5681;-62
2022/05/17 14:55:21;;;;;;;;;;;;;;;26.13;47.38;96994.22;4217713;28;5226;-62
2022/05/17 14:57:25;;;;;;;;;;;;;;;26.15;47.45;96998.53;4218943;28;5647;-63
2022/05/17 14:59:30;;;;;;;;;;;;;;;26.16;47.40;96992.00;4215589;28;5642;-61
2022/05/17 15:01:33;;;;;;;;;;;;;;;26.17;47.29;96989.03;4213824;28;5799;-62
2022/05/17 15:03:42;;;;;;;;;;;;;;;26.19;47.13;96992.25;4217894;28;5708;-62
2022/05/17 15:05:49;;;;;;;;;;;;;;;26.18;47.21;96998.78;4212944;28;5704;-62
2022/05/17 15:07:55;;;;;;;;;;;;;;;26.19;46.72;96994.97;4215088;28;5609;-62
2022/05/17 15:10:01;;;;;;;;;;;;;;;26.20;46.68;96984.94;4213421;28;5512;-62
2022/05/17 15:12:05;;;;;;;;;;;;;;;26.20;46.79;96993.06;4210525;28;5616;-62
2022/05/17 15:14:08;;;;;;;;;;;;;;;26.20;46.85;96993.88;4213886;28;5695;-62
2022/05/17 15:16:16;;;;;;;;;;;;;;;26.22;46.54;96991.69;4215783;28;5743;-62
2022/05/17 15:18:22;;;;;;;;;;;;;;;26.24;46.76;96994.09;4215447;28;6337;-62
2022/05/17 15:20:27;;;;;;;;;;;;;;;26.23;46.39;96987.06;4215624;28;5794;-62
2022/05/17 15:22:34;;;;;;;;;;;;;;;26.22;46.32;96991.69;4206991;28;5731;-61
2022/05/17 15:24:37;;;;;;;;;;;;;;;26.21;46.62;96991.97;4223237;28;5763;-62
2022/05/17 15:26:40;;;;;;;;;;;;;;;26.22;46.17;96988.16;4214361;28;5715;-62
2022/05/17 15:28:46;;;;;;;;;;;;;;;26.24;46.23;96988.69;4211867;28;5809;-61
2022/05/17 15:30:49;;;;;;;;;;;;;;;26.26;46.30;96983.78;4214385;28;5716;-62
2022/05/17 15:32:55;;;;;;;;;;;;;;;26.27;46.04;96977.25;4212281;28;5744;-62
2022/05/17 15:34:58;;;;;;;;;;;;;;;26.27;45.93;96978.06;4212070;28;5711;-61
2022/05/17 15:37:02;;;;;;;;;;;;;;;26.29;46.16;96975.09;4209938;28;5822;-61
2022/05/17 15:39:08;;;;;;;;;;;;;;;26.28;46.28;96979.69;4212237;28;5730;-61
2022/05/17 15:41:12;;;;;;;;;;;;;;;26.28;46.01;96979.69;4204252;28;5758;-61
2022/05/17 15:43:15;;;;;;;;;;;;;;;26.27;45.99;96975.34;4211976;28;5728;-61
2022/05/17 15:45:19;;;;;;;;;;;;;;;26.26;45.97;96986.47;4211584;28;5723;-61
2022/05/17 15:54:35;;;;;;;;;;;;;;;26.21;46.20;96978.41;4210005;28;5838;-62
2022/05/17 15:56:45;;;;;;;;;;;;;;;26.22;45.95;96980.84;4204746;28;6946;-61
2022/05/17 15:58:48;;;;;;;;;;;;;;;26.24;45.91;96984.06;4189687;28;6452;-61
2022/05/17 16:00:52;;;;;;;;;;;;;;;26.26;45.88;96986.47;4209526;28;5778;-61
2022/05/17 16:02:56;;;;;;;;;;;;;;;26.25;46.22;96979.44;4205271;28;5743;-63
2022/05/17 16:05:02;;;;;;;;;;;;;;;26.26;46.28;96975.63;4211084;28;5707;-61
2022/05/17 16:09:28;;;;;;;;;;;;;;;26.28;46.09;96968.84;4204533;28;5798;-61
2022/05/17 16:13:59;;;;;;;;;;;;;;;26.29;46.77;96966.94;4172181;28;5735;-62
2022/05/17 16:16:02;;;;;;;;;;;;;;;26.30;47.01;96965.84;4195742;28;5880;-62
2022/05/17 16:18:12;;;;;;;;;;;;;;;26.30;47.01;96968.56;4196156;28;5832;-62
2022/05/17 16:20:21;;;;;;;;;;;;;;;26.30;47.12;96971.28;4193167;28;5785;-59
2022/05/17 16:22:24;;;;;;;;;;;;;;;26.31;46.69;96972.88;4193462;28;5861;-61
2022/05/17 16:24:29;;;;;;;;;;;;;;;26.29;46.94;96969.66;4195787;28;5849;-60
2022/05/17 16:26:33;;;;;;;;;;;;;;;26.27;46.86;96971.84;4196857;28;5845;-60
2022/05/17 16:28:37;;;;;;;;;;;;;;;26.27;46.87;96972.63;4195954;28;5772;-61
2022/05/17 16:30:42;;;;;;;;;;;;;;;26.28;46.83;96973.47;4193939;28;5876;-61
2022/05/17 16:32:49;;;;;;;;;;;;;;;26.28;47.02;96968.84;4195018;28;5796;-60
2022/05/17 16:34:52;;;;;;;;;;;;;;;26.26;46.66;96975.63;4191069;28;5976;-60
2022/05/17 16:37:00;;;;;;;;;;;;;;;26.24;46.91;96970.50;4193592;28;5912;-60
2022/05/17 16:39:03;;;;;;;;;;;;;;;26.24;46.70;96962.38;4192624;28;5808;-61
2022/05/17 16:41:12;;;;;;;;;;;;;;;26.24;46.53;96973.22;4194387;28;5808;-61
2022/05/17 16:43:16;;;;;;;;;;;;;;;26.24;46.25;96967.00;4194251;28;5743;-60
2022/05/17 16:45:25;;;;;;;;;;;;;;;26.21;46.57;96973.00;4191447;28;5796;-61
2022/05/17 16:47:29;;;;;;;;;;;;;;;26.21;46.53;96973.00;4194922;28;5850;-61
2022/05/17 16:49:32;;;;;;;;;;;;;;;26.18;46.22;96971.69;4194411;28;5777;-62
2022/05/17 16:51:35;;;;;;;;;;;;;;;26.17;46.31;96970.06;4194280;28;5890;-60
2022/05/17 16:53:40;;;;;;;;;;;;;;;26.17;45.96;96971.97;4192948;28;5801;-61
2022/05/17 16:55:44;;;;;;;;;;;;;;;26.15;45.96;96968.72;4195810;28;5788;-61
2022/05/17 16:57:47;;;;;;;;;;;;;;;26.16;45.85;96975.75;4197330;28;5800;-61
2022/05/17 16:59:50;;;;;;;;;;;;;;;26.17;45.66;96972.78;4194076;28;5801;-62